Time;durP1;ratioP1;P1;durP2;ratioP2;P2;SDS_P1;SDS_P2;PMS_P1;PMS_P2;Temp;Humidity;BMP_temperature;BMP_pressure;BME280_temperature;BME280_humidity;BME280_pressure;Samples;Min_cycle;Max_cycle;Signal;HPM_P1;HPM_P2
2022/02/18 00:02:23;;;;;;;13.20;4.57;;;7.60;99.90;;;;;;5087195;28;20226;-70
2022/02/18 00:04:49;;;;;;;12.85;3.90;;;7.60;99.90;;;;;;5088398;28;20714;-70
2022/02/18 00:07:16;;;;;;;14.98;3.60;;;7.60;99.90;;;;;;5088167;28;20223;-70
2022/02/18 00:09:43;;;;;;;11.25;3.75;;;7.60;99.90;;;;;;5072389;28;20232;-70
2022/02/18 00:12:11;;;;;;;12.88;3.90;;;7.60;99.90;;;;;;5067868;28;20204;-70
2022/02/18 00:14:38;;;;;;;13.57;4.38;;;7.60;99.90;;;;;;5068206;28;20632;-70
2022/02/18 00:17:05;;;;;;;14.45;4.78;;;7.60;99.90;;;;;;5067986;28;20236;-71
2022/02/18 00:19:35;;;;;;;13.25;4.25;;;7.60;99.90;;;;;;5068461;28;20200;-70
2022/02/18 00:22:01;;;;;;;13.88;3.78;;;7.60;99.90;;;;;;5067363;28;20239;-70
2022/02/18 00:24:28;;;;;;;16.75;4.40;;;7.60;99.90;;;;;;5068419;28;20522;-71
2022/02/18 00:26:55;;;;;;;13.98;4.47;;;7.70;99.90;;;;;;5068307;28;20232;-71
2022/02/18 00:29:22;;;;;;;16.92;3.70;;;7.70;99.90;;;;;;5068815;28;20212;-71
2022/02/18 00:31:51;;;;;;;13.63;3.80;;;7.70;99.90;;;;;;5069016;28;20231;-71
2022/02/18 00:34:18;;;;;;;16.25;3.83;;;7.70;99.90;;;;;;5068653;28;20275;-71
2022/02/18 00:36:46;;;;;;;13.00;4.10;;;7.80;99.90;;;;;;5072208;28;20229;-70
2022/02/18 00:39:13;;;;;;;15.63;3.65;;;7.80;99.90;;;;;;5121001;22;20234;-93
2022/02/18 00:41:40;;;;;;;9.90;3.88;;;7.80;99.90;;;;;;5118877;28;20195;-91
2022/02/18 00:44:07;;;;;;;15.05;5.32;;;7.80;99.90;;;;;;5120543;28;20210;-92
2022/02/18 00:46:34;;;;;;;11.48;5.40;;;7.80;99.90;;;;;;5119283;28;20290;-92
2022/02/18 00:49:01;;;;;;;11.98;3.50;;;7.90;99.90;;;;;;5120997;28;20223;-92
2022/02/18 00:51:28;;;;;;;11.45;4.22;;;7.90;99.90;;;;;;5120907;28;20290;-91
2022/02/18 00:54:00;;;;;;;12.57;3.78;;;7.90;99.90;;;;;;5122728;28;20213;-92
2022/02/18 00:56:27;;;;;;;9.73;3.95;;;7.90;99.90;;;;;;5131529;28;20223;-91
2022/02/18 00:58:54;;;;;;;11.50;3.88;;;7.90;99.90;;;;;;5140861;28;20207;-94
2022/02/18 01:01:21;;;;;;;10.63;3.30;;;7.90;99.90;;;;;;5141257;28;20271;-92
2022/02/18 01:03:48;;;;;;;11.18;4.30;;;7.90;99.90;;;;;;5140557;28;20175;-93
2022/02/18 01:06:15;;;;;;;9.00;3.90;;;7.90;99.90;;;;;;5125542;28;20290;-91
2022/02/18 01:08:42;;;;;;;11.80;3.47;;;7.90;99.90;;;;;;5119718;28;20226;-92
2022/02/18 01:11:10;;;;;;;10.10;3.55;;;7.90;99.90;;;;;;5119941;28;20678;-92
2022/02/18 01:13:37;;;;;;;8.20;3.13;;;7.90;99.90;;;;;;5115471;28;20211;-92
2022/02/18 01:16:05;;;;;;;14.27;5.07;;;7.80;99.90;;;;;;5099799;28;20219;-92
2022/02/18 01:18:32;;;;;;;9.13;4.45;;;7.80;99.90;;;;;;5102544;28;20223;-92
2022/02/18 01:20:59;;;;;;;8.57;3.60;;;7.80;99.90;;;;;;5105823;28;20271;-92
2022/02/18 01:23:26;;;;;;;9.27;3.58;;;7.90;99.90;;;;;;5114176;28;20368;-92
2022/02/18 01:25:53;;;;;;;14.35;4.05;;;7.90;99.90;;;;;;5099587;28;20235;-92
2022/02/18 01:28:21;;;;;;;13.02;5.70;;;7.90;99.90;;;;;;5084286;28;20224;-92
2022/02/18 01:30:48;;;;;;;12.02;4.10;;;7.90;99.90;;;;;;5077991;28;20215;-92
2022/02/18 01:33:16;;;;;;;9.80;3.25;;;7.80;99.90;;;;;;5078127;28;20771;-91
2022/02/18 01:35:43;;;;;;;9.20;3.42;;;7.80;99.90;;;;;;5077821;28;20209;-93
2022/02/18 01:38:22;;;;;;;15.32;4.13;;;7.70;99.90;;;;;;5077994;28;20568;-93
2022/02/18 01:40:50;;;;;;;10.07;4.05;;;7.70;99.90;;;;;;5078343;28;20199;-92
2022/02/18 01:43:17;;;;;;;5.65;3.38;;;7.70;99.90;;;;;;5077370;28;20208;-92
2022/02/18 01:45:45;;;;;;;10.98;4.00;;;7.70;99.90;;;;;;5076813;28;20212;-92
2022/02/18 01:48:12;;;;;;;8.52;4.15;;;7.70;99.90;;;;;;5078041;28;20232;-92
2022/02/18 01:50:39;;;;;;;7.95;3.40;;;7.70;99.90;;;;;;5078598;28;20205;-92
2022/02/18 01:53:11;;;;;;;12.90;3.95;;;7.60;99.90;;;;;;5093944;28;20204;-92
2022/02/18 01:55:40;;;;;;;8.48;3.38;;;7.60;99.90;;;;;;5097861;28;20211;-91
2022/02/18 01:58:08;;;;;;;10.88;4.18;;;7.50;99.90;;;;;;5096759;28;20934;-91
2022/02/18 02:00:35;;;;;;;15.02;3.40;;;7.50;99.90;;;;;;5097769;28;20290;-91
2022/02/18 02:03:04;;;;;;;9.93;3.33;;;7.40;99.90;;;;;;5097836;28;20267;-93
2022/02/18 02:05:31;;;;;;;15.85;4.25;;;7.40;99.90;;;;;;5101378;28;20202;-90
2022/02/18 02:07:59;;;;;;;8.70;3.75;;;7.40;99.90;;;;;;5098085;28;20286;-92
2022/02/18 02:10:26;;;;;;;15.25;3.50;;;7.30;99.90;;;;;;5090931;28;20740;-91
2022/02/18 02:12:54;;;;;;;14.55;3.03;;;7.40;99.90;;;;;;5076705;28;20756;-92
2022/02/18 02:15:24;;;;;;;13.30;3.72;;;7.40;99.90;;;;;;5077037;28;20290;-91
2022/02/18 02:17:51;;;;;;;8.20;3.05;;;7.40;99.90;;;;;;5076280;28;20956;-92
2022/02/18 02:20:20;;;;;;;14.10;3.25;;;7.40;99.90;;;;;;5076607;28;20208;-92
2022/02/18 02:22:49;;;;;;;8.15;4.03;;;7.30;99.90;;;;;;5076306;28;20208;-92
2022/02/18 02:25:21;;;;;;;7.53;3.10;;;7.40;99.90;;;;;;5076566;28;20200;-91
2022/02/18 02:27:49;;;;;;;9.55;2.97;;;7.40;99.90;;;;;;5076187;28;20193;-91
2022/02/18 02:30:17;;;;;;;12.02;3.58;;;7.40;99.90;;;;;;5076451;28;20650;-91
2022/02/18 02:32:44;;;;;;;5.97;2.85;;;7.40;99.90;;;;;;5075167;28;20200;-91
2022/02/18 02:35:16;;;;;;;12.15;3.95;;;7.40;99.90;;;;;;5075510;28;20212;-91
2022/02/18 02:37:43;;;;;;;8.05;2.63;;;7.40;99.90;;;;;;5089904;28;20215;-90
2022/02/18 02:40:18;;;;;;;9.38;3.40;;;7.40;99.90;;;;;;5117484;28;20196;-91
2022/02/18 02:42:47;;;;;;;14.30;3.35;;;7.40;99.90;;;;;;5118507;28;20722;-91
2022/02/18 02:45:14;;;;;;;17.25;4.50;;;7.40;99.90;;;;;;5116599;28;20286;-91
2022/02/18 02:47:44;;;;;;;5.07;2.30;;;7.30;99.90;;;;;;5117843;28;20205;-91
2022/02/18 02:50:14;;;;;;;9.88;3.38;;;7.30;99.90;;;;;;5124238;28;20660;-91
2022/02/18 02:52:41;;;;;;;8.93;3.10;;;7.30;99.90;;;;;;5119659;28;20206;-91
2022/02/18 02:55:13;;;;;;;11.52;3.03;;;7.30;99.90;;;;;;5121804;28;20281;-91
2022/02/18 02:57:59;;;;;;;7.22;3.33;;;7.30;99.90;;;;;;5118059;28;20230;-92
2022/02/18 03:00:26;;;;;;;7.18;2.80;;;7.30;99.90;;;;;;5116015;28;20683;-91
2022/02/18 03:02:58;;;;;;;10.52;4.50;;;7.20;99.90;;;;;;5115410;28;20302;-91
2022/02/18 03:05:28;;;;;;;9.50;3.15;;;7.30;99.90;;;;;;5115041;28;20199;-91
2022/02/18 03:07:56;;;;;;;8.43;3.33;;;7.30;99.90;;;;;;5128098;28;20244;-92
2022/02/18 03:10:24;;;;;;;10.88;3.40;;;7.30;99.90;;;;;;5136251;28;20183;-92
2022/02/18 03:12:55;;;;;;;6.03;3.15;;;7.30;99.90;;;;;;5117048;28;20676;-92
2022/02/18 03:15:22;;;;;;;6.13;2.90;;;7.30;99.90;;;;;;5117256;28;20191;-91
2022/02/18 03:17:49;;;;;;;9.57;3.10;;;7.30;99.90;;;;;;5116006;28;20286;-90
2022/02/18 03:20:16;;;;;;;10.90;3.55;;;7.30;99.90;;;;;;5115536;28;20680;-92
2022/02/18 03:22:43;;;;;;;7.90;3.05;;;7.30;99.90;;;;;;5115580;28;20203;-91
2022/02/18 03:25:10;;;;;;;11.02;3.67;;;7.20;99.90;;;;;;5115161;28;20227;-91
2022/02/18 03:27:38;;;;;;;8.25;3.13;;;7.10;99.90;;;;;;5114813;28;20201;-91
2022/02/18 03:30:09;;;;;;;8.27;2.85;;;7.00;99.90;;;;;;5115016;28;20670;-91
2022/02/18 03:32:36;;;;;;;12.55;3.22;;;7.00;99.90;;;;;;5114667;28;20207;-91
2022/02/18 03:35:04;;;;;;;15.20;3.63;;;6.90;99.90;;;;;;5114625;28;20205;-91
2022/02/18 03:37:31;;;;;;;12.73;3.90;;;6.90;99.90;;;;;;5114708;28;20218;-89
2022/02/18 03:39:58;;;;;;;14.55;3.75;;;6.90;99.90;;;;;;5114479;28;20662;-90
2022/02/18 03:42:25;;;;;;;8.07;4.40;;;6.80;99.90;;;;;;5114702;28;20232;-91
2022/02/18 03:44:52;;;;;;;16.50;4.35;;;6.80;99.90;;;;;;5117863;28;20263;-89
2022/02/18 03:47:23;;;;;;;9.70;3.42;;;6.80;99.90;;;;;;5117301;28;20195;-91
2022/02/18 03:49:51;;;;;;;10.23;3.20;;;6.80;99.90;;;;;;5117424;28;20595;-91
2022/02/18 03:52:20;;;;;;;9.73;3.28;;;6.80;99.90;;;;;;5118460;28;20210;-92
2022/02/18 03:54:47;;;;;;;6.43;2.80;;;6.80;99.90;;;;;;5117540;28;20210;-92
2022/02/18 03:57:14;;;;;;;12.82;3.90;;;6.90;99.90;;;;;;5116039;28;20233;-91
2022/02/18 03:59:42;;;;;;;6.43;2.65;;;6.90;99.90;;;;;;5116192;28;20245;-91
2022/02/18 04:02:10;;;;;;;10.75;3.00;;;6.90;99.90;;;;;;5117306;28;20206;-91
2022/02/18 04:04:38;;;;;;;11.52;3.08;;;6.90;99.90;;;;;;5120120;28;20203;-91
2022/02/18 04:07:07;;;;;;;7.63;2.95;;;6.90;99.90;;;;;;5121595;28;20219;-92
2022/02/18 04:09:34;;;;;;;7.32;2.85;;;6.90;99.90;;;;;;5128217;28;20234;-91
2022/02/18 04:12:01;;;;;;;12.43;2.85;;;6.90;99.90;;;;;;5137566;28;20230;-93
2022/02/18 04:14:28;;;;;;;8.63;3.55;;;6.80;99.90;;;;;;5113723;28;20200;-92
2022/02/18 04:16:55;;;;;;;9.82;2.95;;;6.80;99.90;;;;;;5098329;28;20221;-92
2022/02/18 04:19:22;;;;;;;8.88;3.17;;;6.80;99.90;;;;;;5098566;28;20222;-92
2022/02/18 04:21:50;;;;;;;13.68;3.30;;;6.80;99.90;;;;;;5098523;28;20695;-91
2022/02/18 04:24:17;;;;;;;14.95;3.88;;;6.90;99.90;;;;;;5099287;28;20207;-93
2022/02/18 04:26:47;;;;;;;10.02;2.85;;;6.90;99.90;;;;;;5098240;28;20217;-93
2022/02/18 04:29:14;;;;;;;11.02;3.80;;;7.00;99.90;;;;;;5099683;28;20344;-92
2022/02/18 04:34:58;;;;;;;6.60;2.97;;;7.00;99.90;;;;;;5056545;28;20681;-93
2022/02/18 04:37:29;;;;;;;12.38;4.82;;;7.10;99.90;;;;;;5091091;28;20210;-93
2022/02/18 04:43:25;;;;;;;14.85;3.90;;;7.20;99.90;;;;;;5088181;28;20194;-92
2022/02/18 04:45:52;;;;;;;7.95;2.88;;;7.20;99.90;;;;;;5086945;28;20209;-93
2022/02/18 04:48:39;;;;;;;9.18;3.33;;;7.20;99.90;;;;;;5088948;28;20208;-92
2022/02/18 04:51:06;;;;;;;12.38;3.45;;;7.20;99.90;;;;;;5093008;28;20199;-91
2022/02/18 04:53:39;;;;;;;7.68;3.38;;;7.20;99.90;;;;;;5089446;28;20246;-91
2022/02/18 04:59:29;;;;;;;9.95;2.85;;;7.30;99.90;;;;;;5117711;22;20611;-72
2022/02/18 05:01:56;;;;;;;10.82;2.90;;;7.40;99.90;;;;;;5140545;27;20198;-72
2022/02/18 05:04:23;;;;;;;12.38;3.35;;;7.40;99.90;;;;;;5136887;27;20186;-72
2022/02/18 05:06:50;;;;;;;10.20;3.22;;;7.40;99.90;;;;;;5149210;27;20220;-72
2022/02/18 05:09:18;;;;;;;12.18;3.40;;;7.40;99.90;;;;;;5134482;27;20195;-72
2022/02/18 05:11:45;;;;;;;8.73;2.85;;;7.40;99.90;;;;;;5148031;27;20190;-72
2022/02/18 05:14:11;;;;;;;8.07;3.10;;;7.30;99.90;;;;;;5155889;27;20210;-72
2022/02/18 05:16:38;;;;;;;11.70;3.45;;;7.30;99.90;;;;;;5155291;27;20708;-72
2022/02/18 05:19:06;;;;;;;12.77;4.07;;;7.30;99.90;;;;;;5154970;27;20225;-71
2022/02/18 05:21:33;;;;;;;5.80;3.45;;;7.30;99.90;;;;;;5154706;27;20194;-71
2022/02/18 05:24:00;;;;;;;11.07;3.78;;;7.40;99.90;;;;;;5156508;27;20208;-71
2022/02/18 05:26:28;;;;;;;8.38;3.28;;;7.40;99.90;;;;;;5148787;27;20226;-71
2022/02/18 05:28:55;;;;;;;12.55;3.30;;;7.30;99.90;;;;;;5136461;27;20195;-71
2022/02/18 05:31:22;;;;;;;8.20;3.50;;;7.40;99.90;;;;;;5136574;27;20194;-72
2022/02/18 05:33:48;;;;;;;8.18;2.83;;;7.40;99.90;;;;;;5136356;27;20228;-71
2022/02/18 05:36:15;;;;;;;10.88;3.55;;;7.30;99.90;;;;;;5139454;27;20233;-71
2022/02/18 05:38:43;;;;;;;11.68;3.40;;;7.40;99.90;;;;;;5138267;27;20218;-71
2022/02/18 05:41:10;;;;;;;11.55;3.40;;;7.40;99.90;;;;;;5136876;27;20654;-71
2022/02/18 05:43:38;;;;;;;7.78;3.15;;;7.30;99.90;;;;;;5136597;27;20207;-71
2022/02/18 05:46:05;;;;;;;12.13;2.70;;;7.40;99.90;;;;;;5137984;27;20222;-71
2022/02/18 05:48:32;;;;;;;8.70;2.90;;;7.40;99.90;;;;;;5138094;27;20250;-71
2022/02/18 05:50:59;;;;;;;11.40;3.28;;;7.30;99.90;;;;;;5137714;27;20198;-71
2022/02/18 05:53:26;;;;;;;7.85;3.17;;;7.30;99.90;;;;;;5141943;27;20199;-71
2022/02/18 05:55:52;;;;;;;12.10;3.25;;;7.40;99.90;;;;;;5152527;27;20214;-71
2022/02/18 05:58:19;;;;;;;11.15;3.13;;;7.40;99.90;;;;;;5147847;27;20214;-71
2022/02/18 06:00:47;;;;;;;10.18;3.00;;;7.40;99.90;;;;;;5151535;27;20202;-71
2022/02/18 06:03:14;;;;;;;9.40;4.22;;;7.40;99.90;;;;;;5150755;27;21105;-71
2022/02/18 06:05:41;;;;;;;12.50;3.58;;;7.30;99.90;;;;;;5140574;27;20195;-72
2022/02/18 06:08:07;;;;;;;8.05;3.22;;;7.40;99.90;;;;;;5139105;27;20218;-72
2022/02/18 06:10:37;;;;;;;10.75;3.78;;;7.40;99.90;;;;;;5139883;27;20202;-72
2022/02/18 06:13:03;;;;;;;10.02;3.25;;;7.40;99.90;;;;;;5138166;27;20202;-71
2022/02/18 06:15:30;;;;;;;11.82;3.53;;;7.40;99.90;;;;;;5138537;27;20198;-71
2022/02/18 06:17:58;;;;;;;6.07;2.70;;;7.50;99.90;;;;;;5137095;27;20222;-71
2022/02/18 06:20:26;;;;;;;10.73;3.55;;;7.40;99.90;;;;;;5141094;27;20221;-71
2022/02/18 06:22:53;;;;;;;9.50;3.45;;;7.50;99.90;;;;;;5140920;27;20222;-71
2022/02/18 06:25:20;;;;;;;10.75;3.33;;;7.50;99.90;;;;;;5140865;27;20220;-71
2022/02/18 06:27:47;;;;;;;14.65;3.33;;;7.50;99.90;;;;;;5139955;27;20218;-71
2022/02/18 06:30:14;;;;;;;11.95;3.53;;;7.50;99.90;;;;;;5140097;27;20573;-71
2022/02/18 06:32:40;;;;;;;7.68;3.05;;;7.50;99.90;;;;;;5139823;27;20202;-72
2022/02/18 06:35:09;;;;;;;13.95;4.03;;;7.50;99.90;;;;;;5139004;27;20202;-71
2022/02/18 06:37:36;;;;;;;7.38;2.70;;;7.50;99.90;;;;;;5138667;27;20237;-71
2022/02/18 06:40:53;;;;;;;7.82;3.25;;;7.60;99.90;;;;;;5155239;22;20230;-91
2022/02/18 06:57:01;;;;;;;;;;;;;;;;;;;;;
2022/02/18 07:00:42;;;;;;;11.48;3.33;;;7.60;99.90;;;;;;5050094;28;20231;-91
2022/02/18 07:03:13;;;;;;;9.60;4.00;;;7.60;99.90;;;;;;5092077;28;20206;-92
2022/02/18 07:19:31;;;;;;;15.07;3.90;;;7.50;99.90;;;;;;4933389;29;20813;-93
2022/02/18 07:28:21;;;;;;;;;;;;;;;;;;;;;
2022/02/18 07:30:48;;;;;;;6.63;3.08;;;7.80;99.90;;;;;;5092945;28;20200;-92
2022/02/18 07:33:25;;;;;;;;;;;;;;;;;;;;;
2022/02/18 07:36:12;;;;;;;4.57;2.60;;;8.00;99.90;;;;;;5092835;28;20195;-93
2022/02/18 07:39:01;;;;;;;7.38;2.40;;;8.00;99.90;;;;;;5092760;28;20223;-92
2022/02/18 07:41:39;;;;;;;6.20;2.30;;;8.20;99.90;;;;;;5093312;28;20204;-92
2022/02/18 07:44:08;;;;;;;4.70;2.60;;;8.20;99.90;;;;;;5097052;28;20735;-91
2022/02/18 07:46:34;;;;;;;6.30;2.58;;;8.30;99.90;;;;;;5099589;28;20203;-92
2022/02/18 07:49:01;;;;;;;7.57;2.72;;;8.40;99.90;;;;;;5091125;28;20220;-94
2022/02/18 07:51:28;;;;;;;7.68;2.63;;;8.50;99.90;;;;;;5091144;28;20241;-92
2022/02/18 07:54:00;;;;;;;5.43;2.00;;;8.60;99.90;;;;;;5091928;28;20203;-92
2022/02/18 07:56:27;;;;;;;5.22;1.88;;;8.60;99.90;;;;;;5091380;28;20291;-91
2022/02/18 07:58:54;;;;;;;4.57;2.08;;;8.70;99.90;;;;;;5091174;28;20232;-93
2022/02/18 08:01:22;;;;;;;3.75;1.80;;;8.70;99.90;;;;;;5101751;28;20465;-92
2022/02/18 08:03:51;;;;;;;5.72;2.10;;;8.80;99.90;;;;;;5115381;28;20203;-92
2022/02/18 08:06:18;;;;;;;7.57;2.15;;;8.90;99.90;;;;;;5113212;28;20199;-92
2022/02/18 08:08:47;;;;;;;4.95;2.38;;;9.00;99.90;;;;;;5112807;28;20230;-92
2022/02/18 08:11:16;;;;;;;5.88;1.85;;;9.00;99.90;;;;;;5113328;28;20203;-92
2022/02/18 08:13:43;;;;;;;5.45;2.50;;;9.10;99.90;;;;;;5113467;28;20199;-93
2022/02/18 08:16:10;;;;;;;4.30;2.40;;;9.10;99.90;;;;;;5113036;28;20210;-92
2022/02/18 08:18:39;;;;;;;6.28;2.22;;;9.20;99.90;;;;;;5110467;22;20224;-71
2022/02/18 08:21:06;;;;;;;3.80;2.33;;;9.30;99.90;;;;;;5069458;28;20192;-71
2022/02/18 08:23:32;;;;;;;4.38;2.20;;;9.40;99.90;;;;;;5068789;28;20686;-71
2022/02/18 08:25:59;;;;;;;4.45;2.05;;;9.50;99.90;;;;;;5069304;28;20255;-71
2022/02/18 08:28:26;;;;;;;2.95;1.70;;;9.60;99.90;;;;;;5070394;28;20200;-70
2022/02/18 08:30:52;;;;;;;7.60;3.05;;;9.80;99.90;;;;;;5069756;28;20204;-71
2022/02/18 08:33:19;;;;;;;3.30;2.10;;;9.90;99.90;;;;;;5069364;28;20714;-71
2022/02/18 08:35:47;;;;;;;4.88;2.72;;;10.00;99.90;;;;;;5069534;28;20204;-71
2022/02/18 08:38:14;;;;;;;4.05;1.63;;;10.10;99.90;;;;;;5053807;28;20221;-70
2022/02/18 08:40:41;;;;;;;3.08;1.25;;;10.10;99.90;;;;;;5050069;28;20208;-70
2022/02/18 08:43:08;;;;;;;3.42;1.65;;;10.20;99.90;;;;;;5049570;28;20228;-70
2022/02/18 08:45:35;;;;;;;4.32;1.88;;;10.20;99.90;;;;;;5049577;28;20677;-71
2022/02/18 08:48:02;;;;;;;4.80;2.28;;;10.30;99.90;;;;;;5050351;28;20204;-70
2022/02/18 08:50:29;;;;;;;5.30;1.52;;;10.40;99.90;;;;;;5049630;28;20678;-70
2022/02/18 08:52:57;;;;;;;3.67;1.92;;;10.50;99.90;;;;;;5048170;28;20205;-70
2022/02/18 08:55:24;;;;;;;5.88;1.67;;;10.60;99.90;;;;;;5051065;28;20680;-71
2022/02/18 08:57:51;;;;;;;4.82;2.78;;;10.70;99.90;;;;;;5053336;28;20355;-70
2022/02/18 09:00:18;;;;;;;3.28;1.77;;;10.80;99.90;;;;;;5053659;28;20256;-71
2022/02/18 09:02:45;;;;;;;2.03;1.20;;;11.10;99.90;;;;;;5052312;28;20208;-70
2022/02/18 09:05:12;;;;;;;4.43;2.00;;;11.60;99.90;;;;;;5053225;28;20286;-70
2022/02/18 09:07:41;;;;;;;1.83;1.35;;;12.30;99.90;;;;;;5053144;28;20224;-70
2022/02/18 09:10:10;;;;;;;2.67;1.23;;;12.80;99.90;;;;;;5052880;28;20197;-71
2022/02/18 09:12:39;;;;;;;3.47;1.50;;;13.10;99.90;;;;;;5052685;28;20232;-70
2022/02/18 09:15:06;;;;;;;1.75;1.15;;;13.00;99.90;;;;;;5052836;28;20292;-71
2022/02/18 09:17:33;;;;;;;2.95;1.50;;;12.80;99.90;;;;;;5052988;28;20224;-70
2022/02/18 09:20:00;;;;;;;3.70;1.33;;;12.60;99.90;;;;;;5052545;28;20712;-70
2022/02/18 09:22:27;;;;;;;3.00;1.60;;;12.60;99.90;;;;;;5052431;28;20204;-70
2022/02/18 09:24:55;;;;;;;1.63;1.25;;;12.60;99.90;;;;;;5052875;28;20212;-70
2022/02/18 09:27:23;;;;;;;1.80;1.13;;;12.60;99.90;;;;;;5052746;28;20225;-70
2022/02/18 09:29:50;;;;;;;1.05;0.90;;;12.60;99.90;;;;;;5052629;28;20569;-70
2022/02/18 09:32:17;;;;;;;4.13;1.38;;;12.70;99.90;;;;;;5052002;28;20212;-70
2022/02/18 09:34:44;;;;;;;2.38;1.20;;;12.70;99.90;;;;;;5052591;28;20280;-70
2022/02/18 09:37:14;;;;;;;4.32;1.60;;;12.50;99.90;;;;;;5052267;28;20720;-70
2022/02/18 09:39:41;;;;;;;2.08;1.10;;;12.70;99.90;;;;;;5052327;28;20232;-70
2022/02/18 09:42:09;;;;;;;4.22;1.40;;;13.10;99.90;;;;;;5051876;28;20212;-70
2022/02/18 09:44:38;;;;;;;2.30;1.30;;;14.90;99.90;;;;;;5052204;28;20205;-71
2022/02/18 09:47:05;;;;;;;1.30;1.10;;;16.60;99.90;;;;;;5052411;28;20491;-70
2022/02/18 09:49:34;;;;;;;2.53;1.30;;;18.30;99.60;;;;;;5052360;28;20455;-70
2022/02/18 09:52:01;;;;;;;6.63;1.30;;;19.60;98.50;;;;;;5052426;28;20491;-70
2022/02/18 09:54:28;;;;;;;4.33;1.27;;;19.70;97.80;;;;;;5052284;28;20459;-70
2022/02/18 09:56:54;;;;;;;2.97;1.40;;;18.90;98.30;;;;;;5051744;28;20479;-69
2022/02/18 09:59:21;;;;;;;1.70;1.17;;;18.00;99.00;;;;;;5052166;28;20486;-70
2022/02/18 10:01:50;;;;;;;1.50;1.10;;;17.80;99.40;;;;;;5051733;28;20455;-70
2022/02/18 10:04:16;;;;;;;1.80;1.37;;;18.80;98.60;;;;;;5051488;28;20459;-70
2022/02/18 10:06:43;;;;;;;3.97;1.47;;;19.20;98.20;;;;;;5051796;28;20482;-70
2022/02/18 10:09:10;;;;;;;5.30;1.77;;;18.90;98.00;;;;;;5051716;28;21258;-70
2022/02/18 10:11:51;;;;;;;2.03;1.50;;;18.40;98.50;;;;;;5052076;28;20989;-69
2022/02/18 10:14:18;;;;;;;2.50;1.50;;;18.50;98.60;;;;;;5051480;28;20490;-71
2022/02/18 10:16:45;;;;;;;3.03;1.87;;;19.50;98.10;;;;;;5052113;28;20490;-70
2022/02/18 10:19:14;;;;;;;2.03;1.20;;;20.40;97.10;;;;;;5051623;28;20523;-70
2022/02/18 10:21:42;;;;;;;1.23;1.07;;;20.80;96.20;;;;;;5051802;28;20459;-70
2022/02/18 10:24:12;;;;;;;3.10;1.30;;;20.90;95.90;;;;;;5051087;28;20908;-70
2022/02/18 10:26:41;;;;;;;2.80;1.53;;;21.90;95.80;;;;;;5051763;28;20483;-71
2022/02/18 10:29:09;;;;;;;3.67;1.50;;;22.80;94.10;;;;;;5051890;28;20455;-70
2022/02/18 10:31:37;;;;;;;2.53;1.20;;;22.20;94.70;;;;;;5051471;28;20466;-70
2022/02/18 10:34:05;;;;;;;3.83;1.30;;;22.40;94.30;;;;;;5050949;28;20459;-71
2022/02/18 10:36:41;;;;;;;2.43;1.50;;;22.10;94.60;;;;;;5051260;28;20479;-70
2022/02/18 10:39:26;;;;;;;1.83;1.20;;;21.00;95.20;;;;;;5051187;28;20498;-70
2022/02/18 10:41:57;;;;;;;3.27;1.47;;;20.50;95.90;;;;;;5051119;28;20505;-70
2022/02/18 10:44:25;;;;;;;1.33;1.20;;;19.40;96.50;;;;;;5051669;28;20467;-70
2022/02/18 10:46:56;;;;;;;3.27;1.20;;;18.30;98.50;;;;;;5057013;28;20482;-70
2022/02/18 10:49:23;;;;;;;1.60;1.23;;;19.10;97.50;;;;;;5057256;28;20814;-71
2022/02/18 10:51:52;;;;;;;4.00;1.47;;;20.00;96.60;;;;;;5056337;28;20479;-70
2022/02/18 10:54:30;;;;;;;3.07;1.13;;;19.80;96.70;;;;;;5070081;28;20818;-70
2022/02/18 10:57:15;;;;;;;2.07;1.27;;;19.50;97.00;;;;;;5070081;28;20483;-71
2022/02/18 10:59:42;;;;;;;4.60;1.37;;;20.10;96.30;;;;;;5070591;28;20486;-70
2022/02/18 11:02:09;;;;;;;2.37;1.50;;;21.10;95.70;;;;;;5065052;28;20464;-70
2022/02/18 11:04:36;;;;;;;3.50;1.40;;;21.70;94.90;;;;;;5070417;28;20462;-70
2022/02/18 11:07:11;;;;;;;2.73;1.43;;;21.90;94.50;;;;;;5068726;28;20482;-71
2022/02/18 11:09:39;;;;;;;2.57;1.10;;;22.30;94.70;;;;;;5069959;28;20458;-69
2022/02/18 11:12:10;;;;;;;2.20;1.17;;;22.10;93.90;;;;;;5069014;28;20466;-70
2022/02/18 11:14:38;;;;;;;3.23;2.37;;;22.50;93.40;;;;;;5069894;28;20961;-70
2022/02/18 11:17:05;;;;;;;2.23;1.43;;;22.00;93.80;;;;;;5068518;28;20863;-70
2022/02/18 11:19:32;;;;;;;2.07;1.03;;;20.80;94.60;;;;;;5068508;28;20489;-71
2022/02/18 11:22:01;;;;;;;2.90;1.60;;;19.20;96.00;;;;;;5069448;28;20458;-70
2022/02/18 11:24:30;;;;;;;3.57;1.70;;;18.40;96.90;;;;;;5069294;28;20471;-70
2022/02/18 11:27:01;;;;;;;3.63;1.20;;;18.20;96.90;;;;;;5069581;28;20479;-71
2022/02/18 11:29:28;;;;;;;5.47;1.10;;;17.70;97.60;;;;;;5069750;28;20458;-71
2022/02/18 11:31:59;;;;;;;1.50;1.40;;;17.50;97.80;;;;;;5068326;28;20489;-71
2022/02/18 11:34:58;;;;;;;1.93;1.53;;;17.50;97.40;;;;;;5069381;28;20557;-70
2022/02/18 11:38:08;;;;;;;4.77;1.37;;;17.80;97.20;;;;;;5068961;28;20589;-70
2022/02/18 11:40:50;;;;;;;3.80;1.27;;;18.60;96.60;;;;;;5065317;28;20490;-70
2022/02/18 11:43:27;;;;;;;2.90;1.20;;;19.90;95.40;;;;;;5068701;28;20454;-70
2022/02/18 11:45:59;;;;;;;5.73;1.23;;;20.20;95.00;;;;;;5069244;28;20478;-70
2022/02/18 11:48:44;;;;;;;3.00;1.30;;;19.80;95.50;;;;;;5068944;28;20494;-69
2022/02/18 11:51:13;;;;;;;2.30;1.20;;;19.30;95.50;;;;;;5069422;28;20461;-70
2022/02/18 11:53:41;;;;;;;2.57;1.60;;;18.70;96.20;;;;;;5068890;28;20493;-70
2022/02/18 11:56:10;;;;;;;2.37;1.30;;;18.10;96.80;;;;;;5067729;28;20869;-70
2022/02/18 11:58:50;;;;;;;2.30;1.30;;;17.60;96.90;;;;;;5069458;28;20463;-70
2022/02/18 12:01:17;;;;;;;1.50;1.10;;;17.90;96.80;;;;;;5068437;28;20476;-70
2022/02/18 12:04:19;;;;;;;3.67;1.67;;;18.00;96.40;;;;;;5068685;28;20832;-70
2022/02/18 12:07:24;;;;;;;1.83;1.17;;;18.00;96.90;;;;;;5068070;28;20478;-70
2022/02/18 12:10:10;;;;;;;2.80;1.50;;;18.60;96.30;;;;;;5068221;28;20493;-70
2022/02/18 12:12:41;;;;;;;5.00;1.90;;;19.00;95.60;;;;;;5067383;28;20455;-70
2022/02/18 12:15:25;;;;;;;2.03;1.40;;;19.30;95.70;;;;;;5068713;28;20455;-72
2022/02/18 12:17:57;;;;;;;3.20;1.10;;;18.90;95.30;;;;;;5067962;28;20458;-70
2022/02/18 12:20:27;;;;;;;1.73;1.07;;;18.20;96.20;;;;;;5068526;28;21026;-70
2022/02/18 12:22:54;;;;;;;2.47;1.10;;;17.30;96.90;;;;;;5068207;28;20455;-70
2022/02/18 12:25:24;;;;;;;3.43;1.30;;;16.90;97.70;;;;;;5067768;28;20465;-69
2022/02/18 12:27:54;;;;;;;1.90;1.03;;;16.60;98.00;;;;;;5068544;28;20483;-70
2022/02/18 12:30:36;;;;;;;2.10;1.20;;;16.40;98.20;;;;;;5071562;28;20454;-71
2022/02/18 12:33:03;;;;;;;2.03;1.37;;;16.40;98.80;;;;;;5070615;28;20488;-70
2022/02/18 12:35:33;;;;;;;3.80;1.30;;;16.40;98.40;;;;;;5071779;28;20465;-71
2022/02/18 12:38:03;;;;;;;3.90;1.23;;;16.40;98.70;;;;;;5071944;28;20458;-71
2022/02/18 12:40:33;;;;;;;2.03;1.10;;;16.70;98.50;;;;;;5072284;28;20997;-70
2022/02/18 12:43:05;;;;;;;2.10;1.27;;;17.00;98.00;;;;;;5071319;28;20459;-71
2022/02/18 12:45:49;;;;;;;3.50;1.20;;;16.80;98.40;;;;;;5071511;28;20473;-71
2022/02/18 12:48:30;;;;;;;4.60;1.53;;;16.50;98.40;;;;;;5071886;28;20462;-70
2022/02/18 12:50:58;;;;;;;3.00;1.50;;;16.20;99.00;;;;;;5072240;28;21167;-70
2022/02/18 12:53:25;;;;;;;4.57;1.53;;;15.90;99.00;;;;;;5071284;28;20454;-70
2022/02/18 12:55:51;;;;;;;2.10;1.20;;;15.90;99.10;;;;;;5071435;28;20899;-70
2022/02/18 12:58:21;;;;;;;6.33;1.70;;;15.70;99.10;;;;;;5071914;28;20637;-70
2022/02/18 13:00:48;;;;;;;1.80;1.10;;;15.70;99.00;;;;;;5071462;28;20492;-70
2022/02/18 13:03:15;;;;;;;6.43;2.10;;;15.60;99.10;;;;;;5071716;28;20463;-70
2022/02/18 13:05:42;;;;;;;2.03;1.20;;;15.70;99.10;;;;;;5072996;28;20487;-70
2022/02/18 13:08:19;;;;;;;2.13;1.10;;;15.70;99.10;;;;;;5073036;28;20462;-71
2022/02/18 13:10:47;;;;;;;2.70;1.20;;;15.60;98.60;;;;;;5072987;28;20816;-71
2022/02/18 13:13:16;;;;;;;1.93;1.30;;;15.60;98.80;;;;;;5072053;28;20520;-71
2022/02/18 13:15:46;;;;;;;2.90;1.17;;;15.70;99.00;;;;;;5072853;28;20462;-70
2022/02/18 13:18:12;;;;;;;5.50;3.00;;;15.70;98.60;;;;;;5072809;28;20488;-70
2022/02/18 13:20:42;;;;;;;3.67;1.10;;;15.70;98.40;;;;;;5073605;28;20961;-70
2022/02/18 13:23:11;;;;;;;9.80;1.73;;;15.60;98.50;;;;;;5072188;28;20470;-70
2022/02/18 13:25:46;;;;;;;2.17;1.23;;;15.50;98.40;;;;;;5072493;28;20950;-72
2022/02/18 13:28:15;;;;;;;6.87;1.27;;;15.50;98.40;;;;;;5072498;28;20969;-72
2022/02/18 13:30:46;;;;;;;2.00;1.30;;;15.30;98.60;;;;;;5072519;28;20459;-72
2022/02/18 13:33:16;;;;;;;2.27;1.10;;;15.20;98.80;;;;;;5072081;28;20470;-71
2022/02/18 13:35:45;;;;;;;2.10;1.03;;;15.20;98.90;;;;;;5072317;28;20458;-71
2022/02/18 13:38:24;;;;;;;1.93;1.43;;;15.10;99.10;;;;;;5057200;28;20460;-72
2022/02/18 13:41:09;;;;;;;2.40;1.43;;;15.10;99.10;;;;;;5050632;28;20483;-72
2022/02/18 13:43:38;;;;;;;1.50;1.30;;;15.00;99.20;;;;;;5050368;28;20525;-71
2022/02/18 13:46:07;;;;;;;1.73;1.40;;;15.00;99.20;;;;;;5050032;28;20502;-72
2022/02/18 13:48:37;;;;;;;2.00;1.20;;;15.00;99.30;;;;;;5051240;28;20462;-72
2022/02/18 13:51:05;;;;;;;2.93;1.40;;;15.00;99.40;;;;;;5050876;28;20559;-72